FAGM

Rand Airport

Johannesburg, South Africa
METAR FAGM 151500Z 32009KT CAVOK 23/10 Q1024
Observed Flight Rules
Dec-15 @ 15:00 UTC (5 hours ago) Visual Flight Rules
Wind Visibility Clouds
320° at 9 knots 10,000+ meters
  • Clear skies
Temperatures Readings
Current 23°C / 73°F
Dewpoint 10°C / 50°F
Humidity 44%
Altimeter 30.24" Hg
Pressure 1024 hPa
Elevation 1672
METAR FAGM 151500Z 32009KT CAVOK 23/10 Q1024
Observed Flight Rules
Dec-15 @ 15:00 UTC
(5 hours ago)
VFR
Wind Visibility
320° at 9 knots 10,000+ meters
Clouds
  • Clear skies
Temperature Dewpoint
23°C / 73°F 10°C / 50°F
Humidity Altimeter Pressure
44% 30.24" Hg 1024 hPa